Antrim, United Kingdom
Current Conditions -  °F | °C
As of 9:50 AM on Sunday 21 Dec 2014 (Local Time) from EGAA Reporting Station
Broken Clouds Broken Clouds  
Wind Chill: 50°   Ceiling: 900
Heat Index: 50°   Visibility: 6mi
Dew Point: 48°   Wind: 18mph
Humidity: 94%   Direction: 230°SW
Pressure: 29.97"   Gusts: NA
Location:  54.7°N, 6.2°W
Report Text: EGAA 210950Z 23016KT 9999 BKN009 10/09 Q1015
Loading
Personal Weather Stations






























Interactive Weather Map New forecast layout! Learn more

10-Day Weather Forecast

Advertisements
Track Severe Weather on mobile